Fdl, Wisconsin
Current Conditions -  °F | °C
As of 12:53 AM on Thursday 23 Oct 2014 (Local Time) from KFLD Reporting Station
Clear Clear  
Wind Chill: 33°   Ceiling: Unl
Heat Index: 38°   Visibility: 10mi
Dew Point: 35°   Wind: 7mph
Humidity: 89%   Direction: 170°S
Pressure: 30.22"   Gusts: NA
Location:  43.7436°N, 88.3886°W
Report Text: KFLD 230553Z AUTO 17006KT 10SM CLR 03/02 A3022 RMK AO2 SLP239 T00330017 10078 20028 401391033 58011
Loading
Personal Weather Stations






























Interactive Weather Map New forecast layout! Learn more

10-Day Weather Forecast

Advertisements
Track Severe Weather on mobile